sensor_id;sensor_type;location;lat;lon;timestamp;P1;durP1;ratioP1;P2;durP2;ratioP2
6452;SDS011;3259;51.080;13.712;2022-07-23T00:00:21;1.40;;;1.40;;
6452;SDS011;3259;51.080;13.712;2022-07-23T00:03:10;1.45;;;1.40;;
6452;SDS011;3259;51.080;13.712;2022-07-23T00:05:58;2.88;;;1.60;;
6452;SDS011;3259;51.080;13.712;2022-07-23T00:08:48;1.55;;;1.45;;
6452;SDS011;3259;51.080;13.712;2022-07-23T00:11:36;2.13;;;1.38;;
6452;SDS011;3259;51.080;13.712;2022-07-23T00:14:25;1.92;;;1.83;;
6452;SDS011;3259;51.080;13.712;2022-07-23T00:17:15;3.13;;;2.50;;
6452;SDS011;3259;51.080;13.712;2022-07-23T00:20:04;4.57;;;1.80;;
6452;SDS011;3259;51.080;13.712;2022-07-23T00:22:54;2.53;;;2.13;;
6452;SDS011;3259;51.080;13.712;2022-07-23T00:25:43;1.52;;;1.42;;
6452;SDS011;3259;51.080;13.712;2022-07-23T00:28:32;1.80;;;1.70;;
6452;SDS011;3259;51.080;13.712;2022-07-23T00:31:20;1.88;;;1.77;;
6452;SDS011;3259;51.080;13.712;2022-07-23T00:34:10;1.67;;;1.58;;
6452;SDS011;3259;51.080;13.712;2022-07-23T00:36:59;1.65;;;1.55;;
6452;SDS011;3259;51.080;13.712;2022-07-23T00:39:47;1.65;;;1.60;;
6452;SDS011;3259;51.080;13.712;2022-07-23T00:42:36;1.80;;;1.70;;
6452;SDS011;3259;51.080;13.712;2022-07-23T00:45:25;1.95;;;1.85;;
6452;SDS011;3259;51.080;13.712;2022-07-23T00:48:13;1.42;;;1.42;;
6452;SDS011;3259;51.080;13.712;2022-07-23T00:51:05;8.98;;;1.27;;
6452;SDS011;3259;51.080;13.712;2022-07-23T00:53:53;1.40;;;1.40;;
6452;SDS011;3259;51.080;13.712;2022-07-23T00:56:42;1.65;;;1.55;;
6452;SDS011;3259;51.080;13.712;2022-07-23T00:59:31;2.92;;;1.35;;
6452;SDS011;3259;51.080;13.712;2022-07-23T01:02:21;1.48;;;1.38;;
6452;SDS011;3259;51.080;13.712;2022-07-23T01:05:10;1.30;;;1.20;;
6452;SDS011;3259;51.080;13.712;2022-07-23T01:07:59;1.80;;;1.48;;
6452;SDS011;3259;51.080;13.712;2022-07-23T01:10:48;1.63;;;1.52;;
6452;SDS011;3259;51.080;13.712;2022-07-23T01:13:40;1.63;;;1.63;;
6452;SDS011;3259;51.080;13.712;2022-07-23T01:16:29;1.67;;;1.58;;
6452;SDS011;3259;51.080;13.712;2022-07-23T01:19:17;1.50;;;1.40;;
6452;SDS011;3259;51.080;13.712;2022-07-23T01:22:06;1.30;;;1.30;;
6452;SDS011;3259;51.080;13.712;2022-07-23T01:24:56;3.58;;;1.52;;
6452;SDS011;3259;51.080;13.712;2022-07-23T01:27:44;1.33;;;1.33;;
6452;SDS011;3259;51.080;13.712;2022-07-23T01:30:33;1.63;;;1.63;;
6452;SDS011;3259;51.080;13.712;2022-07-23T01:33:22;2.00;;;1.85;;
6452;SDS011;3259;51.080;13.712;2022-07-23T01:36:10;1.73;;;1.63;;
6452;SDS011;3259;51.080;13.712;2022-07-23T01:38:59;1.80;;;1.67;;
6452;SDS011;3259;51.080;13.712;2022-07-23T01:41:50;1.58;;;1.58;;
6452;SDS011;3259;51.080;13.712;2022-07-23T01:44:39;2.03;;;1.92;;
6452;SDS011;3259;51.080;13.712;2022-07-23T01:47:27;1.40;;;1.40;;
6452;SDS011;3259;51.080;13.712;2022-07-23T01:50:16;1.90;;;1.75;;
6452;SDS011;3259;51.080;13.712;2022-07-23T01:53:05;1.63;;;1.63;;
6452;SDS011;3259;51.080;13.712;2022-07-23T01:55:53;1.75;;;1.65;;
6452;SDS011;3259;51.080;13.712;2022-07-23T01:58:43;1.30;;;1.27;;
6452;SDS011;3259;51.080;13.712;2022-07-23T02:01:32;1.55;;;1.55;;
6452;SDS011;3259;51.080;13.712;2022-07-23T02:04:21;1.52;;;1.52;;
6452;SDS011;3259;51.080;13.712;2022-07-23T02:07:10;2.08;;;1.80;;
6452;SDS011;3259;51.080;13.712;2022-07-23T02:09:59;3.83;;;1.83;;
6452;SDS011;3259;51.080;13.712;2022-07-23T02:12:48;3.33;;;1.75;;
6452;SDS011;3259;51.080;13.712;2022-07-23T02:15:38;1.35;;;1.35;;
6452;SDS011;3259;51.080;13.712;2022-07-23T02:18:30;3.47;;;1.60;;
6452;SDS011;3259;51.080;13.712;2022-07-23T02:21:18;1.75;;;1.65;;
6452;SDS011;3259;51.080;13.712;2022-07-23T02:24:08;2.63;;;1.60;;
6452;SDS011;3259;51.080;13.712;2022-07-23T02:26:57;1.90;;;1.58;;
6452;SDS011;3259;51.080;13.712;2022-07-23T02:29:46;2.22;;;1.73;;
6452;SDS011;3259;51.080;13.712;2022-07-23T02:32:36;1.48;;;1.42;;
6452;SDS011;3259;51.080;13.712;2022-07-23T02:35:26;1.67;;;1.58;;
6452;SDS011;3259;51.080;13.712;2022-07-23T02:38:14;1.60;;;1.60;;
6452;SDS011;3259;51.080;13.712;2022-07-23T02:41:03;1.45;;;1.33;;
6452;SDS011;3259;51.080;13.712;2022-07-23T02:43:51;2.40;;;1.63;;
6452;SDS011;3259;51.080;13.712;2022-07-23T02:46:40;1.98;;;1.88;;
6452;SDS011;3259;51.080;13.712;2022-07-23T02:49:30;2.42;;;2.22;;
6452;SDS011;3259;51.080;13.712;2022-07-23T02:52:18;1.73;;;1.63;;
6452;SDS011;3259;51.080;13.712;2022-07-23T02:55:08;1.58;;;1.48;;
6452;SDS011;3259;51.080;13.712;2022-07-23T02:57:57;1.90;;;1.80;;
6452;SDS011;3259;51.080;13.712;2022-07-23T03:00:45;1.52;;;1.52;;
6452;SDS011;3259;51.080;13.712;2022-07-23T03:03:34;2.00;;;1.90;;
6452;SDS011;3259;51.080;13.712;2022-07-23T03:06:24;1.85;;;1.75;;
6452;SDS011;3259;51.080;13.712;2022-07-23T03:09:12;2.15;;;2.05;;
6452;SDS011;3259;51.080;13.712;2022-07-23T03:12:01;1.90;;;1.80;;
6452;SDS011;3259;51.080;13.712;2022-07-23T03:14:54;2.90;;;2.13;;
6452;SDS011;3259;51.080;13.712;2022-07-23T03:17:42;1.92;;;1.83;;
6452;SDS011;3259;51.080;13.712;2022-07-23T03:20:31;1.95;;;1.85;;
6452;SDS011;3259;51.080;13.712;2022-07-23T03:23:21;1.77;;;1.70;;
6452;SDS011;3259;51.080;13.712;2022-07-23T03:26:09;2.05;;;1.95;;
6452;SDS011;3259;51.080;13.712;2022-07-23T03:28:58;1.63;;;1.63;;
6452;SDS011;3259;51.080;13.712;2022-07-23T03:31:48;2.63;;;1.98;;
6452;SDS011;3259;51.080;13.712;2022-07-23T03:34:37;1.85;;;1.75;;
6452;SDS011;3259;51.080;13.712;2022-07-23T03:37:27;1.55;;;1.55;;
6452;SDS011;3259;51.080;13.712;2022-07-23T03:40:17;1.88;;;1.77;;
6452;SDS011;3259;51.080;13.712;2022-07-23T03:43:06;2.45;;;2.22;;
6452;SDS011;3259;51.080;13.712;2022-07-23T03:45:54;2.65;;;2.08;;
6452;SDS011;3259;51.080;13.712;2022-07-23T03:48:43;1.90;;;1.77;;
6452;SDS011;3259;51.080;13.712;2022-07-23T03:51:31;2.00;;;1.90;;
6452;SDS011;3259;51.080;13.712;2022-07-23T03:54:20;2.28;;;1.95;;
6452;SDS011;3259;51.080;13.712;2022-07-23T03:57:10;2.22;;;1.88;;
6452;SDS011;3259;51.080;13.712;2022-07-23T03:59:59;1.75;;;1.65;;
6452;SDS011;3259;51.080;13.712;2022-07-23T04:02:47;1.85;;;1.75;;
6452;SDS011;3259;51.080;13.712;2022-07-23T04:05:36;2.05;;;1.83;;
6452;SDS011;3259;51.080;13.712;2022-07-23T04:08:24;2.10;;;2.00;;
6452;SDS011;3259;51.080;13.712;2022-07-23T04:11:13;2.30;;;2.15;;
6452;SDS011;3259;51.080;13.712;2022-07-23T04:14:03;2.53;;;2.30;;
6452;SDS011;3259;51.080;13.712;2022-07-23T04:16:51;2.08;;;1.98;;
6452;SDS011;3259;51.080;13.712;2022-07-23T04:19:40;1.67;;;1.58;;
6452;SDS011;3259;51.080;13.712;2022-07-23T04:22:30;3.15;;;1.92;;
6452;SDS011;3259;51.080;13.712;2022-07-23T04:25:18;2.40;;;2.10;;
6452;SDS011;3259;51.080;13.712;2022-07-23T04:28:09;2.38;;;2.25;;
6452;SDS011;3259;51.080;13.712;2022-07-23T04:30:59;2.28;;;2.08;;
6452;SDS011;3259;51.080;13.712;2022-07-23T04:33:47;2.38;;;2.28;;
6452;SDS011;3259;51.080;13.712;2022-07-23T04:36:36;2.45;;;2.25;;
6452;SDS011;3259;51.080;13.712;2022-07-23T04:39:24;2.22;;;2.13;;
6452;SDS011;3259;51.080;13.712;2022-07-23T04:42:13;2.72;;;2.53;;
6452;SDS011;3259;51.080;13.712;2022-07-23T04:45:02;2.15;;;2.05;;
6452;SDS011;3259;51.080;13.712;2022-07-23T04:47:57;2.47;;;2.25;;
6452;SDS011;3259;51.080;13.712;2022-07-23T04:50:45;2.22;;;2.03;;
6452;SDS011;3259;51.080;13.712;2022-07-23T04:53:34;1.80;;;1.70;;
6452;SDS011;3259;51.080;13.712;2022-07-23T04:56:25;2.97;;;1.52;;
6452;SDS011;3259;51.080;13.712;2022-07-23T04:59:13;2.08;;;1.98;;
6452;SDS011;3259;51.080;13.712;2022-07-23T05:02:03;4.32;;;1.85;;
6452;SDS011;3259;51.080;13.712;2022-07-23T05:04:53;2.83;;;1.73;;
6452;SDS011;3259;51.080;13.712;2022-07-23T05:07:41;1.88;;;1.77;;
6452;SDS011;3259;51.080;13.712;2022-07-23T05:10:30;2.10;;;1.90;;
6452;SDS011;3259;51.080;13.712;2022-07-23T05:13:18;2.08;;;1.75;;
6452;SDS011;3259;51.080;13.712;2022-07-23T05:16:07;1.77;;;1.77;;
6452;SDS011;3259;51.080;13.712;2022-07-23T05:18:55;7.20;;;1.88;;
6452;SDS011;3259;51.080;13.712;2022-07-23T05:21:46;3.03;;;1.85;;
6452;SDS011;3259;51.080;13.712;2022-07-23T05:24:34;2.30;;;2.05;;
6452;SDS011;3259;51.080;13.712;2022-07-23T05:27:23;1.88;;;1.77;;
6452;SDS011;3259;51.080;13.712;2022-07-23T05:30:13;3.17;;;2.47;;
6452;SDS011;3259;51.080;13.712;2022-07-23T05:33:01;3.00;;;1.75;;
6452;SDS011;3259;51.080;13.712;2022-07-23T05:35:50;3.58;;;1.75;;
6452;SDS011;3259;51.080;13.712;2022-07-23T05:38:39;4.43;;;1.92;;
6452;SDS011;3259;51.080;13.712;2022-07-23T05:41:28;2.67;;;2.10;;
6452;SDS011;3259;51.080;13.712;2022-07-23T05:44:16;2.67;;;2.42;;
6452;SDS011;3259;51.080;13.712;2022-07-23T05:47:05;2.17;;;2.08;;
6452;SDS011;3259;51.080;13.712;2022-07-23T05:49:55;2.33;;;2.13;;
6452;SDS011;3259;51.080;13.712;2022-07-23T05:52:49;2.47;;;1.90;;
6452;SDS011;3259;51.080;13.712;2022-07-23T05:55:40;1.92;;;1.83;;
6452;SDS011;3259;51.080;13.712;2022-07-23T05:58:28;2.03;;;1.70;;
6452;SDS011;3259;51.080;13.712;2022-07-23T06:01:16;1.90;;;1.80;;
6452;SDS011;3259;51.080;13.712;2022-07-23T06:04:05;2.63;;;2.10;;
6452;SDS011;3259;51.080;13.712;2022-07-23T06:06:54;4.93;;;2.38;;
6452;SDS011;3259;51.080;13.712;2022-07-23T06:09:42;2.13;;;2.05;;
6452;SDS011;3259;51.080;13.712;2022-07-23T06:12:35;4.35;;;2.55;;
6452;SDS011;3259;51.080;13.712;2022-07-23T06:15:24;3.38;;;3.08;;
6452;SDS011;3259;51.080;13.712;2022-07-23T06:18:13;4.78;;;3.00;;
6452;SDS011;3259;51.080;13.712;2022-07-23T06:21:01;3.30;;;2.85;;
6452;SDS011;3259;51.080;13.712;2022-07-23T06:24:10;3.45;;;2.78;;
6452;SDS011;3259;51.080;13.712;2022-07-23T06:26:58;3.30;;;3.00;;
6452;SDS011;3259;51.080;13.712;2022-07-23T06:29:48;3.63;;;3.33;;
6452;SDS011;3259;51.080;13.712;2022-07-23T06:32:37;4.07;;;3.28;;
6452;SDS011;3259;51.080;13.712;2022-07-23T06:35:25;6.40;;;3.80;;
6452;SDS011;3259;51.080;13.712;2022-07-23T06:38:14;3.35;;;3.05;;
6452;SDS011;3259;51.080;13.712;2022-07-23T06:41:02;3.58;;;3.00;;
6452;SDS011;3259;51.080;13.712;2022-07-23T06:43:51;5.20;;;3.65;;
6452;SDS011;3259;51.080;13.712;2022-07-23T06:46:41;4.03;;;3.13;;
6452;SDS011;3259;51.080;13.712;2022-07-23T06:49:30;4.68;;;3.72;;
6452;SDS011;3259;51.080;13.712;2022-07-23T06:52:18;4.13;;;3.92;;
6452;SDS011;3259;51.080;13.712;2022-07-23T06:55:07;5.28;;;4.10;;
6452;SDS011;3259;51.080;13.712;2022-07-23T06:57:56;4.07;;;3.67;;
6452;SDS011;3259;51.080;13.712;2022-07-23T07:00:44;3.78;;;3.40;;
6452;SDS011;3259;51.080;13.712;2022-07-23T07:03:36;4.13;;;3.35;;
6452;SDS011;3259;51.080;13.712;2022-07-23T07:06:26;3.78;;;3.47;;
6452;SDS011;3259;51.080;13.712;2022-07-23T07:09:15;4.22;;;3.55;;
6452;SDS011;3259;51.080;13.712;2022-07-23T07:12:05;9.82;;;4.05;;
6452;SDS011;3259;51.080;13.712;2022-07-23T07:14:54;12.55;;;3.90;;
6452;SDS011;3259;51.080;13.712;2022-07-23T07:17:43;6.65;;;3.70;;
6452;SDS011;3259;51.080;13.712;2022-07-23T07:20:33;3.88;;;3.55;;
6452;SDS011;3259;51.080;13.712;2022-07-23T07:23:21;3.80;;;3.35;;
6452;SDS011;3259;51.080;13.712;2022-07-23T07:26:10;4.68;;;3.72;;
6452;SDS011;3259;51.080;13.712;2022-07-23T07:28:58;5.15;;;3.47;;
6452;SDS011;3259;51.080;13.712;2022-07-23T07:31:48;4.82;;;3.97;;
6452;SDS011;3259;51.080;13.712;2022-07-23T07:34:36;3.72;;;3.45;;
6452;SDS011;3259;51.080;13.712;2022-07-23T07:37:26;4.85;;;2.72;;
6452;SDS011;3259;51.080;13.712;2022-07-23T07:40:16;4.82;;;3.08;;
6452;SDS011;3259;51.080;13.712;2022-07-23T07:43:05;5.38;;;2.90;;
6452;SDS011;3259;51.080;13.712;2022-07-23T07:45:53;3.42;;;3.13;;
6452;SDS011;3259;51.080;13.712;2022-07-23T07:48:42;3.45;;;3.15;;
6452;SDS011;3259;51.080;13.712;2022-07-23T07:51:31;3.70;;;3.40;;
6452;SDS011;3259;51.080;13.712;2022-07-23T07:54:21;3.40;;;3.10;;
6452;SDS011;3259;51.080;13.712;2022-07-23T07:57:10;5.20;;;2.85;;
6452;SDS011;3259;51.080;13.712;2022-07-23T07:59:59;4.00;;;3.58;;
6452;SDS011;3259;51.080;13.712;2022-07-23T08:03:07;3.08;;;2.80;;
6452;SDS011;3259;51.080;13.712;2022-07-23T08:05:56;4.07;;;3.53;;
6452;SDS011;3259;51.080;13.712;2022-07-23T08:08:45;3.83;;;2.75;;
6452;SDS011;3259;51.080;13.712;2022-07-23T08:11:35;2.58;;;2.38;;
6452;SDS011;3259;51.080;13.712;2022-07-23T08:14:23;9.60;;;2.55;;
6452;SDS011;3259;51.080;13.712;2022-07-23T08:17:12;3.88;;;2.60;;
6452;SDS011;3259;51.080;13.712;2022-07-23T08:20:01;4.85;;;3.45;;
6452;SDS011;3259;51.080;13.712;2022-07-23T08:22:51;3.45;;;3.10;;
6452;SDS011;3259;51.080;13.712;2022-07-23T08:25:41;4.03;;;2.85;;
6452;SDS011;3259;51.080;13.712;2022-07-23T08:28:31;4.85;;;2.70;;
6452;SDS011;3259;51.080;13.712;2022-07-23T08:31:20;3.05;;;2.85;;
6452;SDS011;3259;51.080;13.712;2022-07-23T08:34:09;3.00;;;2.80;;
6452;SDS011;3259;51.080;13.712;2022-07-23T08:36:57;4.13;;;2.22;;
6452;SDS011;3259;51.080;13.712;2022-07-23T08:39:46;4.38;;;2.83;;
6452;SDS011;3259;51.080;13.712;2022-07-23T08:42:34;4.35;;;2.38;;
6452;SDS011;3259;51.080;13.712;2022-07-23T08:45:25;3.33;;;3.03;;
6452;SDS011;3259;51.080;13.712;2022-07-23T08:48:15;3.05;;;2.75;;
6452;SDS011;3259;51.080;13.712;2022-07-23T08:51:07;2.97;;;2.60;;
6452;SDS011;3259;51.080;13.712;2022-07-23T08:53:57;3.22;;;2.83;;
6452;SDS011;3259;51.080;13.712;2022-07-23T08:56:46;4.05;;;3.65;;
6452;SDS011;3259;51.080;13.712;2022-07-23T08:59:34;2.97;;;2.65;;
6452;SDS011;3259;51.080;13.712;2022-07-23T09:02:24;5.00;;;2.50;;
6452;SDS011;3259;51.080;13.712;2022-07-23T09:05:13;4.43;;;3.30;;
6452;SDS011;3259;51.080;13.712;2022-07-23T09:08:09;5.53;;;3.13;;
6452;SDS011;3259;51.080;13.712;2022-07-23T09:10:59;3.25;;;2.95;;
6452;SDS011;3259;51.080;13.712;2022-07-23T09:13:48;2.97;;;2.65;;
6452;SDS011;3259;51.080;13.712;2022-07-23T09:16:39;6.82;;;3.38;;
6452;SDS011;3259;51.080;13.712;2022-07-23T09:19:32;2.80;;;2.60;;
6452;SDS011;3259;51.080;13.712;2022-07-23T09:22:20;4.72;;;3.30;;
6452;SDS011;3259;51.080;13.712;2022-07-23T09:25:15;2.70;;;2.50;;
6452;SDS011;3259;51.080;13.712;2022-07-23T09:28:05;6.53;;;2.90;;
6452;SDS011;3259;51.080;13.712;2022-07-23T09:30:54;2.70;;;2.60;;
6452;SDS011;3259;51.080;13.712;2022-07-23T09:33:42;4.85;;;2.88;;
6452;SDS011;3259;51.080;13.712;2022-07-23T09:36:32;6.40;;;3.17;;
6452;SDS011;3259;51.080;13.712;2022-07-23T09:39:27;6.15;;;3.25;;
6452;SDS011;3259;51.080;13.712;2022-07-23T09:42:17;4.38;;;3.65;;
6452;SDS011;3259;51.080;13.712;2022-07-23T09:45:07;4.88;;;3.10;;
6452;SDS011;3259;51.080;13.712;2022-07-23T09:48:09;2.92;;;2.72;;
6452;SDS011;3259;51.080;13.712;2022-07-23T09:51:01;3.15;;;2.95;;
6452;SDS011;3259;51.080;13.712;2022-07-23T09:53:52;3.05;;;2.85;;
6452;SDS011;3259;51.080;13.712;2022-07-23T09:56:40;3.90;;;3.60;;
6452;SDS011;3259;51.080;13.712;2022-07-23T09:59:30;2.92;;;2.65;;
6452;SDS011;3259;51.080;13.712;2022-07-23T10:02:21;4.15;;;3.30;;
6452;SDS011;3259;51.080;13.712;2022-07-23T10:05:13;4.70;;;2.88;;
6452;SDS011;3259;51.080;13.712;2022-07-23T10:08:03;3.95;;;3.28;;
6452;SDS011;3259;51.080;13.712;2022-07-23T10:10:54;3.60;;;3.38;;
6452;SDS011;3259;51.080;13.712;2022-07-23T10:13:42;5.53;;;3.50;;
6452;SDS011;3259;51.080;13.712;2022-07-23T10:16:41;3.45;;;3.15;;
6452;SDS011;3259;51.080;13.712;2022-07-23T10:19:30;3.17;;;3.08;;
6452;SDS011;3259;51.080;13.712;2022-07-23T10:22:20;3.50;;;3.20;;
6452;SDS011;3259;51.080;13.712;2022-07-23T10:25:13;3.55;;;3.25;;
6452;SDS011;3259;51.080;13.712;2022-07-23T10:28:15;3.50;;;3.30;;
6452;SDS011;3259;51.080;13.712;2022-07-23T10:31:26;4.20;;;3.63;;
6452;SDS011;3259;51.080;13.712;2022-07-23T10:34:40;4.00;;;3.03;;
6452;SDS011;3259;51.080;13.712;2022-07-23T10:37:34;3.90;;;2.72;;
6452;SDS011;3259;51.080;13.712;2022-07-23T10:40:26;3.08;;;2.88;;
6452;SDS011;3259;51.080;13.712;2022-07-23T10:43:16;3.45;;;3.10;;
6452;SDS011;3259;51.080;13.712;2022-07-23T10:46:21;3.25;;;3.03;;
6452;SDS011;3259;51.080;13.712;2022-07-23T10:49:26;4.70;;;3.70;;
6452;SDS011;3259;51.080;13.712;2022-07-23T10:52:19;5.35;;;3.70;;
6452;SDS011;3259;51.080;13.712;2022-07-23T11:01:38;4.50;;;3.60;;
6452;SDS011;3259;51.080;13.712;2022-07-23T11:07:39;3.55;;;2.78;;
6452;SDS011;3259;51.080;13.712;2022-07-23T11:11:13;3.55;;;3.15;;
6452;SDS011;3259;51.080;13.712;2022-07-23T11:14:03;5.60;;;3.00;;
6452;SDS011;3259;51.080;13.712;2022-07-23T11:16:54;5.40;;;3.22;;
6452;SDS011;3259;51.080;13.712;2022-07-23T11:23:02;5.65;;;3.65;;
6452;SDS011;3259;51.080;13.712;2022-07-23T11:25:51;3.97;;;3.53;;
6452;SDS011;3259;51.080;13.712;2022-07-23T11:28:41;5.20;;;3.20;;
6452;SDS011;3259;51.080;13.712;2022-07-23T11:31:29;3.88;;;3.47;;
6452;SDS011;3259;51.080;13.712;2022-07-23T11:34:26;2.88;;;2.67;;
6452;SDS011;3259;51.080;13.712;2022-07-23T11:37:26;5.13;;;3.05;;
6452;SDS011;3259;51.080;13.712;2022-07-23T11:40:22;3.40;;;2.83;;
6452;SDS011;3259;51.080;13.712;2022-07-23T11:43:11;5.82;;;2.80;;
6452;SDS011;3259;51.080;13.712;2022-07-23T11:46:01;3.25;;;3.03;;
6452;SDS011;3259;51.080;13.712;2022-07-23T11:49:00;2.60;;;2.40;;
6452;SDS011;3259;51.080;13.712;2022-07-23T11:52:02;5.18;;;2.38;;
6452;SDS011;3259;51.080;13.712;2022-07-23T11:54:52;3.67;;;2.97;;
6452;SDS011;3259;51.080;13.712;2022-07-23T11:57:43;3.88;;;3.55;;
6452;SDS011;3259;51.080;13.712;2022-07-23T12:00:32;7.38;;;2.90;;
6452;SDS011;3259;51.080;13.712;2022-07-23T12:03:27;5.03;;;3.83;;
6452;SDS011;3259;51.080;13.712;2022-07-23T12:06:16;3.17;;;2.92;;
6452;SDS011;3259;51.080;13.712;2022-07-23T12:09:06;7.95;;;3.00;;
6452;SDS011;3259;51.080;13.712;2022-07-23T12:11:58;3.67;;;3.38;;
6452;SDS011;3259;51.080;13.712;2022-07-23T12:14:47;4.53;;;3.15;;
6452;SDS011;3259;51.080;13.712;2022-07-23T12:17:37;7.35;;;3.10;;
6452;SDS011;3259;51.080;13.712;2022-07-23T12:20:29;4.70;;;3.60;;
6452;SDS011;3259;51.080;13.712;2022-07-23T12:23:20;4.43;;;3.47;;
6452;SDS011;3259;51.080;13.712;2022-07-23T12:26:09;4.43;;;3.38;;
6452;SDS011;3259;51.080;13.712;2022-07-23T12:28:58;3.80;;;3.42;;
6452;SDS011;3259;51.080;13.712;2022-07-23T12:31:47;3.28;;;3.08;;
6452;SDS011;3259;51.080;13.712;2022-07-23T12:34:36;3.70;;;3.10;;
6452;SDS011;3259;51.080;13.712;2022-07-23T12:37:30;3.33;;;2.80;;
6452;SDS011;3259;51.080;13.712;2022-07-23T12:40:21;3.60;;;3.30;;
6452;SDS011;3259;51.080;13.712;2022-07-23T12:43:11;4.15;;;3.75;;
6452;SDS011;3259;51.080;13.712;2022-07-23T12:46:07;3.70;;;3.40;;
6452;SDS011;3259;51.080;13.712;2022-07-23T12:48:57;4.78;;;3.17;;
6452;SDS011;3259;51.080;13.712;2022-07-23T12:51:48;7.30;;;3.88;;
6452;SDS011;3259;51.080;13.712;2022-07-23T12:54:38;3.20;;;3.00;;
6452;SDS011;3259;51.080;13.712;2022-07-23T13:03:54;4.43;;;3.40;;
6452;SDS011;3259;51.080;13.712;2022-07-23T13:06:45;4.13;;;3.67;;
6452;SDS011;3259;51.080;13.712;2022-07-23T13:09:34;3.45;;;3.08;;
6452;SDS011;3259;51.080;13.712;2022-07-23T13:12:30;4.28;;;3.78;;
6452;SDS011;3259;51.080;13.712;2022-07-23T13:15:18;5.05;;;3.33;;
6452;SDS011;3259;51.080;13.712;2022-07-23T13:18:09;3.83;;;3.53;;
6452;SDS011;3259;51.080;13.712;2022-07-23T13:20:58;6.63;;;3.58;;
6452;SDS011;3259;51.080;13.712;2022-07-23T13:23:48;3.10;;;2.90;;
6452;SDS011;3259;51.080;13.712;2022-07-23T13:26:37;3.90;;;3.50;;
6452;SDS011;3259;51.080;13.712;2022-07-23T13:29:27;3.50;;;3.13;;
6452;SDS011;3259;51.080;13.712;2022-07-23T13:32:17;6.10;;;3.28;;
6452;SDS011;3259;51.080;13.712;2022-07-23T13:35:06;5.03;;;3.25;;
6452;SDS011;3259;51.080;13.712;2022-07-23T13:37:57;10.15;;;4.00;;
6452;SDS011;3259;51.080;13.712;2022-07-23T13:40:46;7.10;;;4.10;;
6452;SDS011;3259;51.080;13.712;2022-07-23T13:43:36;5.28;;;4.22;;
6452;SDS011;3259;51.080;13.712;2022-07-23T13:46:26;6.00;;;3.78;;
6452;SDS011;3259;51.080;13.712;2022-07-23T13:49:14;6.18;;;4.20;;
6452;SDS011;3259;51.080;13.712;2022-07-23T13:52:04;4.45;;;4.05;;
6452;SDS011;3259;51.080;13.712;2022-07-23T13:54:53;9.57;;;3.95;;
6452;SDS011;3259;51.080;13.712;2022-07-23T13:57:43;5.35;;;4.55;;
6452;SDS011;3259;51.080;13.712;2022-07-23T14:00:32;6.20;;;4.38;;
6452;SDS011;3259;51.080;13.712;2022-07-23T14:03:40;3.90;;;3.60;;
6452;SDS011;3259;51.080;13.712;2022-07-23T14:06:29;10.93;;;3.97;;
6452;SDS011;3259;51.080;13.712;2022-07-23T14:09:19;4.20;;;3.80;;
6452;SDS011;3259;51.080;13.712;2022-07-23T14:12:08;3.88;;;3.60;;
6452;SDS011;3259;51.080;13.712;2022-07-23T14:14:57;3.78;;;3.47;;
6452;SDS011;3259;51.080;13.712;2022-07-23T14:17:45;4.45;;;3.53;;
6452;SDS011;3259;51.080;13.712;2022-07-23T14:20:35;3.92;;;3.63;;
6452;SDS011;3259;51.080;13.712;2022-07-23T14:23:24;4.00;;;3.60;;
6452;SDS011;3259;51.080;13.712;2022-07-23T14:26:12;4.72;;;3.85;;
6452;SDS011;3259;51.080;13.712;2022-07-23T14:29:03;4.05;;;3.72;;
6452;SDS011;3259;51.080;13.712;2022-07-23T14:31:54;4.90;;;4.40;;
6452;SDS011;3259;51.080;13.712;2022-07-23T14:34:42;7.38;;;4.65;;
6452;SDS011;3259;51.080;13.712;2022-07-23T14:37:36;5.00;;;4.10;;
6452;SDS011;3259;51.080;13.712;2022-07-23T14:40:28;3.88;;;3.55;;
6452;SDS011;3259;51.080;13.712;2022-07-23T14:43:17;3.80;;;3.50;;
6452;SDS011;3259;51.080;13.712;2022-07-23T14:46:06;3.92;;;3.40;;
6452;SDS011;3259;51.080;13.712;2022-07-23T14:48:54;15.35;;;4.03;;
6452;SDS011;3259;51.080;13.712;2022-07-23T14:51:43;3.97;;;3.67;;
6452;SDS011;3259;51.080;13.712;2022-07-23T14:54:33;7.32;;;4.22;;
6452;SDS011;3259;51.080;13.712;2022-07-23T14:57:22;4.47;;;4.18;;
6452;SDS011;3259;51.080;13.712;2022-07-23T15:00:13;4.35;;;3.92;;
6452;SDS011;3259;51.080;13.712;2022-07-23T15:03:02;4.43;;;4.03;;
6452;SDS011;3259;51.080;13.712;2022-07-23T15:05:51;4.22;;;3.92;;
6452;SDS011;3259;51.080;13.712;2022-07-23T15:08:39;5.15;;;4.68;;
6452;SDS011;3259;51.080;13.712;2022-07-23T15:11:29;6.20;;;4.10;;
6452;SDS011;3259;51.080;13.712;2022-07-23T15:14:20;4.10;;;3.83;;
6452;SDS011;3259;51.080;13.712;2022-07-23T15:17:13;6.22;;;5.05;;
6452;SDS011;3259;51.080;13.712;2022-07-23T15:20:02;5.57;;;5.03;;
6452;SDS011;3259;51.080;13.712;2022-07-23T15:22:51;4.78;;;4.32;;
6452;SDS011;3259;51.080;13.712;2022-07-23T15:25:41;4.43;;;4.13;;
6452;SDS011;3259;51.080;13.712;2022-07-23T15:28:38;9.52;;;5.00;;
6452;SDS011;3259;51.080;13.712;2022-07-23T15:31:26;6.10;;;4.57;;
6452;SDS011;3259;51.080;13.712;2022-07-23T15:34:15;5.20;;;4.70;;
6452;SDS011;3259;51.080;13.712;2022-07-23T15:37:03;5.65;;;5.07;;
6452;SDS011;3259;51.080;13.712;2022-07-23T15:39:57;4.93;;;4.57;;
6452;SDS011;3259;51.080;13.712;2022-07-23T15:42:46;6.30;;;5.70;;
6452;SDS011;3259;51.080;13.712;2022-07-23T15:45:36;6.75;;;5.88;;
6452;SDS011;3259;51.080;13.712;2022-07-23T15:48:24;6.38;;;5.82;;
6452;SDS011;3259;51.080;13.712;2022-07-23T15:51:13;6.57;;;5.95;;
6452;SDS011;3259;51.080;13.712;2022-07-23T15:54:03;7.03;;;5.50;;
6452;SDS011;3259;51.080;13.712;2022-07-23T15:56:52;8.07;;;5.43;;
6452;SDS011;3259;51.080;13.712;2022-07-23T15:59:41;10.40;;;5.93;;
6452;SDS011;3259;51.080;13.712;2022-07-23T16:02:31;7.03;;;5.22;;
6452;SDS011;3259;51.080;13.712;2022-07-23T16:05:20;6.07;;;5.22;;
6452;SDS011;3259;51.080;13.712;2022-07-23T16:08:12;5.05;;;4.63;;
6452;SDS011;3259;51.080;13.712;2022-07-23T16:11:00;10.45;;;5.38;;
6452;SDS011;3259;51.080;13.712;2022-07-23T16:13:49;5.80;;;5.22;;
6452;SDS011;3259;51.080;13.712;2022-07-23T16:16:37;7.55;;;5.75;;
6452;SDS011;3259;51.080;13.712;2022-07-23T16:19:29;7.90;;;5.90;;
6452;SDS011;3259;51.080;13.712;2022-07-23T16:22:18;6.97;;;6.10;;
6452;SDS011;3259;51.080;13.712;2022-07-23T16:25:07;6.55;;;5.95;;
6452;SDS011;3259;51.080;13.712;2022-07-23T16:27:56;6.57;;;5.32;;
6452;SDS011;3259;51.080;13.712;2022-07-23T16:30:46;7.55;;;6.50;;
6452;SDS011;3259;51.080;13.712;2022-07-23T16:33:34;6.93;;;5.95;;
6452;SDS011;3259;51.080;13.712;2022-07-23T16:36:24;6.88;;;6.28;;
6452;SDS011;3259;51.080;13.712;2022-07-23T16:39:13;9.10;;;6.72;;
6452;SDS011;3259;51.080;13.712;2022-07-23T16:42:01;7.32;;;6.63;;
6452;SDS011;3259;51.080;13.712;2022-07-23T16:44:51;10.65;;;6.93;;
6452;SDS011;3259;51.080;13.712;2022-07-23T16:47:39;8.38;;;6.13;;
6452;SDS011;3259;51.080;13.712;2022-07-23T16:50:28;7.88;;;6.13;;
6452;SDS011;3259;51.080;13.712;2022-07-23T16:53:18;7.82;;;6.78;;
6452;SDS011;3259;51.080;13.712;2022-07-23T16:56:06;6.75;;;6.05;;
6452;SDS011;3259;51.080;13.712;2022-07-23T16:58:55;7.47;;;6.68;;
6452;SDS011;3259;51.080;13.712;2022-07-23T17:01:44;12.30;;;7.32;;
6452;SDS011;3259;51.080;13.712;2022-07-23T17:04:32;8.52;;;6.47;;
6452;SDS011;3259;51.080;13.712;2022-07-23T17:07:21;8.27;;;5.93;;
6452;SDS011;3259;51.080;13.712;2022-07-23T17:10:11;9.90;;;6.20;;
6452;SDS011;3259;51.080;13.712;2022-07-23T17:12:59;7.35;;;6.65;;
6452;SDS011;3259;51.080;13.712;2022-07-23T17:15:48;6.35;;;5.72;;
6452;SDS011;3259;51.080;13.712;2022-07-23T17:18:36;8.30;;;5.80;;
6452;SDS011;3259;51.080;13.712;2022-07-23T17:21:25;7.57;;;6.10;;
6452;SDS011;3259;51.080;13.712;2022-07-23T17:24:14;7.22;;;5.50;;
6452;SDS011;3259;51.080;13.712;2022-07-23T17:27:07;6.88;;;5.05;;
6452;SDS011;3259;51.080;13.712;2022-07-23T17:29:56;6.05;;;5.40;;
6452;SDS011;3259;51.080;13.712;2022-07-23T17:32:44;5.43;;;5.03;;
6452;SDS011;3259;51.080;13.712;2022-07-23T17:35:33;5.10;;;4.32;;
6452;SDS011;3259;51.080;13.712;2022-07-23T17:38:22;5.70;;;5.20;;